May 22, 2022

Time Code Weather Temp. Visibility Clouds Wind METAR/SPECI
7:00 pm
V
81 °F 6¼ mi+ - 220°   220° 6 kt METAR DXXX 221900Z 22006KT 9999 FEW012 27/23 Q1013 NOSIG
6:00 pm
V
82 °F 6¼ mi+ - 220°   220° 8 kt METAR DXXX 221800Z 22008KT 9999 FEW013 FEW020CB 28/23 Q1012 NOSIG
5:00 pm
V
84 °F 6¼ mi+ - 220°   220° 8 kt METAR DXXX 221700Z 22008KT 190V250 9999 FEW015 29/22 Q1012 NOSIG
4:00 pm
V
84 °F 6¼ mi+ - 210°   210° 6 kt METAR DXXX 221600Z 21006KT 180V250 9999 SCT015 29/24 Q1012 NOSIG
3:00 pm
V
84 °F 6¼ mi+ - 190°   190° 7 kt METAR DXXX 221500Z 19007KT 160V230 9999 SCT015 29/24 Q1013 NOSIG
2:00 pm
V
84 °F 6¼ mi+ - 210°   210° 6 kt METAR DXXX 221400Z 21006KT 180V250 9999 SCT013 29/24 Q1013 NOSIG
1:00 pm
V
82 °F 6¼ mi+ 4,000 ft 270°   270° 5 kt METAR DXXX 221300Z 27005KT 230V310 9999 FEW013 BKN040 28/24 Q1014 NOSIG
12:00 pm
V
82 °F 6¼ mi+ 4,000 ft 290°   290° 5 kt METAR DXXX 221200Z 29005KT 260V320 9999 SCT013 BKN040 28/23 Q1014 NOSIG
11:00 am
V
81 °F 6¼ mi+ - 310°   310° 6 kt METAR DXXX 221100Z 31006KT 270V340 9999 FEW011 27/24 Q1014 NOSIG
10:00 am
V
79 °F 6¼ mi+ - 300°   300° 6 kt METAR DXXX 221000Z 30006KT 270V320 9999 SCT011 26/23 Q1015 NOSIG
9:00 am
V
79 °F 6¼ mi+ - 330°   330° 7 kt METAR DXXX 220900Z 33007KT 9999 SCT011 26/23 Q1015 NOSIG
8:00 am
V
75 °F 6¼ mi+ - 350°   350° 8 kt METAR DXXX 220800Z 35008KT 9999 SCT010 24/23 Q1015 NOSIG
7:00 am
V
75 °F 6¼ mi+ - 350°   350° 9 kt METAR DXXX 220700Z 35009KT 9999 SCT010 24/23 Q1015 NOSIG
6:00 am
V
75 °F 6¼ mi+ - 350°   350° 4 kt METAR DXXX 220600Z 35004KT 9999 SCT010 SCT020 24/23 Q1014 NOSIG
5:00 am
V
75 °F 6¼ mi+ - 280°   280° 4 kt METAR DXXX 220500Z 28004KT 280V310 9999 FEW010 24/23 Q1014 NOSIG
4:00 am
V
75 °F 6¼ mi+ - 250°   250° 5 kt METAR DXXX 220400Z 25005KT 9999 SCT010 24/23 Q1013 NOSIG
3:00 am
M
75 °F 3¾ mi - 300°   300° 4 kt METAR DXXX 220300Z 30004KT 260V340 6000 -RA SCT010 24/23 Q1014 NOSIG
2:00 am
M
75 °F 3¾ mi - 320°   320° 5 kt METAR DXXX 220200Z 32005KT 290V350 6000 -RA SCT010 24/23 Q1014 NOSIG
1:00 am
V
75 °F 5 mi - 330°   330° 4 kt METAR DXXX 220100Z 33004KT 8000 -RA FEW010 24/23 Q1014 NOSIG
12:00 am
V
75 °F 5 mi - Var   Var 3 kt METAR DXXX 220000Z VRB03KT 8000 -RA FEW010 24/23 Q1015 NOSIG

May 21, 2022

Time Code Weather Temp. Visibility Clouds Wind METAR/SPECI
11:00 pm
V
75 °F 5 mi - 230°   230° 4 kt METAR DXXX 212300Z 23004KT 8000 TS SCT010 FEW017CB 24/23 Q1015 NOSIG
8:00 pm
V
75 °F 5 mi - 360°   360° 2 kt METAR DXXX 212000Z 36002KT 8000 -TSRA FEW010 FEW017CB 24/23 Q1015 NOSIG
7:00 pm
M
73 °F 3¾ mi 1,000 ft 100°   100° 5 kt METAR DXXX 211900Z 10005KT 070V140 6000 -TSRA BKN010 FEW020CB 23/22 Q1015 NOSIG
6:00 pm
I
72 °F 1½ mi 1,000 ft 090°   090° 11 kt METAR DXXX 211800Z 09011KT 2500 TSRA BKN010 FEW020CB 22/21 Q1015 TEMPO 4000 TSRA
5:00 pm
V
82 °F 5 mi - Var   Var 4 kt METAR DXXX 211700Z VRB04KT 8000 -RA SCT012 FEW020CB 28/25 Q1013 TEMPO 4000 TSRA BKN010 FEW020CB
4:00 pm
V
82 °F 6¼ mi+ - 250°   250° 7 kt METAR DXXX 211600Z 25007KT 9999 SCT012 FEW020CB 28/25 Q1012 TEMPO 4000 TSRA BKN010 FEW020CB
3:00 pm
V
82 °F 5 mi - 200°   200° 5 kt METAR DXXX 211500Z 20005KT 8000 FEW012 FEW020CB 28/24 Q1011 RETS NOSIG
2:00 pm
V
79 °F 5 mi - 260°   260° 7 kt METAR DXXX 211400Z 26007KT 8000 TS FEW010 FEW020CB 26/24 Q1012 NOSIG
1:00 pm
V
77 °F 5 mi - Var   Var 3 kt METAR DXXX 211300Z VRB03KT 8000 -TSRA FEW010 FEW020CB 25/23 Q1013 RERA NOSIG
12:00 pm
M
84 °F 3¾ mi - 200°   200° 10 kt METAR DXXX 211200Z 20010KT 160V220 6000 -RA SCT015 29/24 Q1014 TEMPO 4000 RA BKN012 FEW020CB
11:00 am
V
90 °F 6¼ mi+ - 240°   240° 7 kt METAR DXXX 211100Z 24007KT 180V300 9999 SCT016 32/23 Q1014 NOSIG
10:00 am
V
90 °F 6¼ mi+ - 240°   240° 8 kt METAR DXXX 211000Z 24008KT 190V280 9999 FEW015 FEW020CB 32/24 Q1014 NOSIG
9:00 am
V
86 °F 6¼ mi+ - 270°   270° 6 kt METAR DXXX 210900Z 27006KT 240V320 9999 FEW013 FEW020CB 30/24 Q1014 NOSIG
8:00 am
V
84 °F 6¼ mi+ - 270°   270° 7 kt METAR DXXX 210800Z 27007KT 9999 TS FEW012 FEW020CB 29/24 Q1014 NOSIG
7:00 am
V
81 °F 6¼ mi+ - 310°   310° 4 kt METAR DXXX 210700Z 31004KT 9999 TS SCT012 FEW020CB 27/24 Q1014 NOSIG
6:00 am
V
81 °F 6¼ mi+ - 310°   310° 5 kt METAR DXXX 210600Z 31005KT 9999 TS SCT012 FEW020CB 27/24 Q1013 NOSIG
5:00 am
V
81 °F 6¼ mi+ - 320°   320° 3 kt METAR DXXX 210500Z 32003KT 9999 TS SCT012 FEW020CB 27/24 Q1013 NOSIG
4:00 am
V
81 °F 6¼ mi+ - 270°   270° 4 kt METAR DXXX 210400Z 27004KT 9999 FEW012 27/24 Q1012 NOSIG
3:00 am
V
81 °F 6¼ mi+ - 280°   280° 5 kt METAR DXXX 210300Z 28005KT 9999 FEW012 27/24 Q1012 NOSIG
2:00 am
V
81 °F 6¼ mi+ - 240°   240° 6 kt METAR DXXX 210200Z 24006KT 9999 FEW012 27/24 Q1012 NOSIG
1:00 am
V
81 °F 6¼ mi+ - 250°   250° 7 kt METAR DXXX 210100Z 25007KT 9999 FEW012 27/24 Q1012 NOSIG
12:00 am
V
82 °F 6¼ mi+ - 260°   260° 7 kt METAR DXXX 210000Z 26007KT 9999 FEW012 28/25 Q1013 NOSIG

May 20, 2022

Time Code Weather Temp. Visibility Clouds Wind METAR/SPECI
11:00 pm
V
82 °F 6¼ mi+ - 240°   240° 7 kt METAR DXXX 202300Z 24007KT 9999 FEW012 28/25 Q1013 NOSIG
10:00 pm
V
82 °F 6¼ mi+ - 230°   230° 7 kt METAR DXXX 202200Z 23007KT 9999 FEW012 28/25 Q1014 NOSIG
9:00 pm
V
82 °F 6¼ mi+ - 220°   220° 8 kt METAR DXXX 202100Z 22008KT 9999 FEW012 28/25 Q1013 NOSIG
8:00 pm
V
82 °F 6¼ mi+ - 200°   200° 11 kt METAR DXXX 202000Z 20011KT 9999 FEW012 28/25 Q1013 NOSIG
7:00 pm
V
82 °F 6¼ mi+ - 200°   200° 12 kt METAR DXXX 201900Z 20012KT 160V220 9999 SCT013 28/24 Q1012 NOSIG
6:00 pm
V
84 °F 6¼ mi+ - 180°   180° 12 kt METAR DXXX 201800Z 18012KT 150V210 9999 SCT014 FEW020CB 29/25 Q1011 NOSIG
5:00 pm
V
86 °F 6¼ mi+ - 180°   180° 10 kt METAR DXXX 201700Z 18010KT 150V210 9999 SCT014 FEW020CB 30/25 Q1011 NOSIG
4:00 pm
V
88 °F 6¼ mi+ - 160°   160° 10 kt METAR DXXX 201600Z 16010KT 120V200 9999 FEW015 FEW020CB 31/24 Q1011 NOSIG
3:00 pm
V
88 °F 6¼ mi+ - 190°   190° 9 kt METAR DXXX 201500Z 19009KT 150V210 9999 FEW015 FEW020CB 31/24 Q1011 NOSIG
Older data

Download our app

Easy access to all aviation weather on your mobile phone and tablet.
With many features not available on the website, like offline support and a personal airport list.

We and third parties follow your internet behavior on our website with cookies. If you continue, we assume you agree with our cookie policy. Learn more